sensor_id;sensor_type;location;lat;lon;timestamp;P1;durP1;ratioP1;P2;durP2;ratioP2
24813;SDS011;12904;50.088;11.414;2023-08-17T00:01:24;5.45;;;5.00;;
24813;SDS011;12904;50.088;11.414;2023-08-17T00:03:49;5.32;;;4.82;;
24813;SDS011;12904;50.088;11.414;2023-08-17T00:06:15;4.90;;;4.50;;
24813;SDS011;12904;50.088;11.414;2023-08-17T00:08:41;6.05;;;4.40;;
24813;SDS011;12904;50.088;11.414;2023-08-17T00:11:07;5.00;;;4.55;;
24813;SDS011;12904;50.088;11.414;2023-08-17T00:13:33;5.95;;;5.15;;
24813;SDS011;12904;50.088;11.414;2023-08-17T00:15:58;5.47;;;4.97;;
24813;SDS011;12904;50.088;11.414;2023-08-17T00:18:24;6.28;;;5.65;;
24813;SDS011;12904;50.088;11.414;2023-08-17T00:20:49;5.95;;;5.45;;
24813;SDS011;12904;50.088;11.414;2023-08-17T00:23:15;5.80;;;4.65;;
24813;SDS011;12904;50.088;11.414;2023-08-17T00:25:40;6.95;;;4.97;;
24813;SDS011;12904;50.088;11.414;2023-08-17T00:28:06;4.45;;;3.90;;
24813;SDS011;12904;50.088;11.414;2023-08-17T00:30:32;4.65;;;4.30;;
24813;SDS011;12904;50.088;11.414;2023-08-17T00:33:01;5.18;;;4.20;;
24813;SDS011;12904;50.088;11.414;2023-08-17T00:35:27;4.90;;;4.45;;
24813;SDS011;12904;50.088;11.414;2023-08-17T00:37:53;4.95;;;4.30;;
24813;SDS011;12904;50.088;11.414;2023-08-17T00:40:19;7.10;;;4.35;;
24813;SDS011;12904;50.088;11.414;2023-08-17T00:42:44;5.75;;;4.70;;
24813;SDS011;12904;50.088;11.414;2023-08-17T00:45:10;4.72;;;4.07;;
24813;SDS011;12904;50.088;11.414;2023-08-17T00:47:36;5.30;;;4.38;;
24813;SDS011;12904;50.088;11.414;2023-08-17T00:50:02;5.35;;;4.78;;
24813;SDS011;12904;50.088;11.414;2023-08-17T00:52:28;4.70;;;4.30;;
24813;SDS011;12904;50.088;11.414;2023-08-17T00:54:57;4.95;;;3.90;;
24813;SDS011;12904;50.088;11.414;2023-08-17T00:57:23;4.72;;;4.22;;
24813;SDS011;12904;50.088;11.414;2023-08-17T00:59:49;4.82;;;4.43;;
24813;SDS011;12904;50.088;11.414;2023-08-17T01:02:16;5.32;;;4.32;;
24813;SDS011;12904;50.088;11.414;2023-08-17T01:04:42;10.70;;;5.40;;
24813;SDS011;12904;50.088;11.414;2023-08-17T01:07:08;6.50;;;4.57;;
24813;SDS011;12904;50.088;11.414;2023-08-17T01:09:34;4.85;;;4.43;;
24813;SDS011;12904;50.088;11.414;2023-08-17T01:15:13;7.88;;;5.00;;
24813;SDS011;12904;50.088;11.414;2023-08-17T01:17:43;5.88;;;5.32;;
24813;SDS011;12904;50.088;11.414;2023-08-17T01:20:16;4.68;;;4.28;;
24813;SDS011;12904;50.088;11.414;2023-08-17T01:22:45;5.15;;;4.53;;
24813;SDS011;12904;50.088;11.414;2023-08-17T01:25:13;5.25;;;4.75;;
24813;SDS011;12904;50.088;11.414;2023-08-17T01:27:40;4.65;;;4.28;;
24813;SDS011;12904;50.088;11.414;2023-08-17T01:30:07;5.57;;;4.85;;
24813;SDS011;12904;50.088;11.414;2023-08-17T01:32:54;5.03;;;4.53;;
24813;SDS011;12904;50.088;11.414;2023-08-17T01:35:37;5.07;;;4.60;;
24813;SDS011;12904;50.088;11.414;2023-08-17T01:38:07;5.10;;;4.70;;
24813;SDS011;12904;50.088;11.414;2023-08-17T01:40:36;9.40;;;5.00;;
24813;SDS011;12904;50.088;11.414;2023-08-17T01:43:03;5.97;;;5.47;;
24813;SDS011;12904;50.088;11.414;2023-08-17T01:45:29;8.00;;;5.57;;
24813;SDS011;12904;50.088;11.414;2023-08-17T01:47:55;6.63;;;5.30;;
24813;SDS011;12904;50.088;11.414;2023-08-17T01:50:21;5.40;;;4.78;;
24813;SDS011;12904;50.088;11.414;2023-08-17T01:52:46;4.68;;;4.28;;
24813;SDS011;12904;50.088;11.414;2023-08-17T01:55:12;4.78;;;4.30;;
24813;SDS011;12904;50.088;11.414;2023-08-17T01:57:38;3.47;;;3.17;;
24813;SDS011;12904;50.088;11.414;2023-08-17T02:00:04;2.60;;;2.38;;
24813;SDS011;12904;50.088;11.414;2023-08-17T02:02:30;3.33;;;1.90;;
24813;SDS011;12904;50.088;11.414;2023-08-17T02:04:56;1.88;;;1.63;;
24813;SDS011;12904;50.088;11.414;2023-08-17T02:07:22;2.78;;;1.80;;
24813;SDS011;12904;50.088;11.414;2023-08-17T02:09:47;4.88;;;1.67;;
24813;SDS011;12904;50.088;11.414;2023-08-17T02:12:13;2.20;;;1.38;;
24813;SDS011;12904;50.088;11.414;2023-08-17T02:14:39;2.20;;;1.80;;
24813;SDS011;12904;50.088;11.414;2023-08-17T02:17:04;4.32;;;1.90;;
24813;SDS011;12904;50.088;11.414;2023-08-17T02:19:31;1.45;;;1.35;;
24813;SDS011;12904;50.088;11.414;2023-08-17T02:21:57;2.17;;;1.17;;
24813;SDS011;12904;50.088;11.414;2023-08-17T02:24:23;4.75;;;1.58;;
24813;SDS011;12904;50.088;11.414;2023-08-17T02:26:50;1.85;;;1.30;;
24813;SDS011;12904;50.088;11.414;2023-08-17T02:29:15;1.83;;;1.40;;
24813;SDS011;12904;50.088;11.414;2023-08-17T02:31:41;3.72;;;1.50;;
24813;SDS011;12904;50.088;11.414;2023-08-17T02:34:07;2.03;;;1.38;;
24813;SDS011;12904;50.088;11.414;2023-08-17T02:36:33;2.03;;;1.42;;
24813;SDS011;12904;50.088;11.414;2023-08-17T02:38:58;3.00;;;1.50;;
24813;SDS011;12904;50.088;11.414;2023-08-17T02:41:24;3.70;;;1.75;;
24813;SDS011;12904;50.088;11.414;2023-08-17T02:43:50;2.75;;;1.55;;
24813;SDS011;12904;50.088;11.414;2023-08-17T02:46:15;1.45;;;1.30;;
24813;SDS011;12904;50.088;11.414;2023-08-17T02:48:41;2.63;;;1.40;;
24813;SDS011;12904;50.088;11.414;2023-08-17T02:51:06;2.40;;;1.42;;
24813;SDS011;12904;50.088;11.414;2023-08-17T02:53:32;2.75;;;1.70;;
24813;SDS011;12904;50.088;11.414;2023-08-17T02:55:58;2.22;;;2.03;;
24813;SDS011;12904;50.088;11.414;2023-08-17T02:58:23;1.67;;;1.55;;
24813;SDS011;12904;50.088;11.414;2023-08-17T03:00:52;2.60;;;1.40;;
24813;SDS011;12904;50.088;11.414;2023-08-17T03:03:18;2.65;;;1.45;;
24813;SDS011;12904;50.088;11.414;2023-08-17T03:05:44;2.05;;;1.58;;
24813;SDS011;12904;50.088;11.414;2023-08-17T03:08:10;1.73;;;1.58;;
24813;SDS011;12904;50.088;11.414;2023-08-17T03:10:36;2.85;;;1.80;;
24813;SDS011;12904;50.088;11.414;2023-08-17T03:13:02;3.22;;;1.98;;
24813;SDS011;12904;50.088;11.414;2023-08-17T03:15:28;1.80;;;1.70;;
24813;SDS011;12904;50.088;11.414;2023-08-17T03:17:53;8.85;;;1.83;;
24813;SDS011;12904;50.088;11.414;2023-08-17T03:20:19;2.30;;;2.03;;
24813;SDS011;12904;50.088;11.414;2023-08-17T03:22:45;3.63;;;2.40;;
24813;SDS011;12904;50.088;11.414;2023-08-17T03:25:10;3.80;;;2.42;;
24813;SDS011;12904;50.088;11.414;2023-08-17T03:27:36;2.38;;;2.17;;
24813;SDS011;12904;50.088;11.414;2023-08-17T03:30:02;2.45;;;1.83;;
24813;SDS011;12904;50.088;11.414;2023-08-17T03:32:28;2.55;;;2.03;;
24813;SDS011;12904;50.088;11.414;2023-08-17T03:34:54;2.75;;;2.35;;
24813;SDS011;12904;50.088;11.414;2023-08-17T03:37:20;3.80;;;2.17;;
24813;SDS011;12904;50.088;11.414;2023-08-17T03:39:45;2.95;;;2.20;;
24813;SDS011;12904;50.088;11.414;2023-08-17T03:42:11;3.45;;;1.98;;
24813;SDS011;12904;50.088;11.414;2023-08-17T03:44:36;2.70;;;2.08;;
24813;SDS011;12904;50.088;11.414;2023-08-17T03:47:02;3.13;;;2.25;;
24813;SDS011;12904;50.088;11.414;2023-08-17T03:49:28;3.08;;;2.08;;
24813;SDS011;12904;50.088;11.414;2023-08-17T03:51:53;3.58;;;2.10;;
24813;SDS011;12904;50.088;11.414;2023-08-17T03:54:19;5.35;;;2.00;;
24813;SDS011;12904;50.088;11.414;2023-08-17T03:56:44;7.13;;;1.90;;
24813;SDS011;12904;50.088;11.414;2023-08-17T03:59:10;2.97;;;2.05;;
24813;SDS011;12904;50.088;11.414;2023-08-17T04:01:36;3.92;;;2.25;;
24813;SDS011;12904;50.088;11.414;2023-08-17T04:04:01;2.80;;;2.17;;
24813;SDS011;12904;50.088;11.414;2023-08-17T04:06:27;3.00;;;2.17;;
24813;SDS011;12904;50.088;11.414;2023-08-17T04:08:52;2.30;;;2.10;;
24813;SDS011;12904;50.088;11.414;2023-08-17T04:11:18;3.05;;;1.90;;
24813;SDS011;12904;50.088;11.414;2023-08-17T04:13:44;1.77;;;1.60;;
24813;SDS011;12904;50.088;11.414;2023-08-17T04:16:09;2.35;;;2.15;;
24813;SDS011;12904;50.088;11.414;2023-08-17T04:18:35;3.00;;;2.60;;
24813;SDS011;12904;50.088;11.414;2023-08-17T04:21:00;2.45;;;2.25;;
24813;SDS011;12904;50.088;11.414;2023-08-17T04:23:26;2.97;;;2.58;;
24813;SDS011;12904;50.088;11.414;2023-08-17T04:25:53;2.83;;;2.10;;
24813;SDS011;12904;50.088;11.414;2023-08-17T04:28:19;3.10;;;2.72;;
24813;SDS011;12904;50.088;11.414;2023-08-17T04:30:45;4.53;;;2.40;;
24813;SDS011;12904;50.088;11.414;2023-08-17T04:33:11;2.47;;;2.17;;
24813;SDS011;12904;50.088;11.414;2023-08-17T04:35:37;3.03;;;2.42;;
24813;SDS011;12904;50.088;11.414;2023-08-17T04:38:03;2.58;;;2.30;;
24813;SDS011;12904;50.088;11.414;2023-08-17T04:40:29;3.60;;;2.40;;
24813;SDS011;12904;50.088;11.414;2023-08-17T04:42:55;2.80;;;2.60;;
24813;SDS011;12904;50.088;11.414;2023-08-17T04:45:21;6.65;;;2.45;;
24813;SDS011;12904;50.088;11.414;2023-08-17T04:47:48;3.08;;;2.78;;
24813;SDS011;12904;50.088;11.414;2023-08-17T04:50:14;2.72;;;2.53;;
24813;SDS011;12904;50.088;11.414;2023-08-17T04:52:44;3.92;;;2.35;;
24813;SDS011;12904;50.088;11.414;2023-08-17T04:55:10;4.68;;;3.15;;
24813;SDS011;12904;50.088;11.414;2023-08-17T04:57:36;2.65;;;2.45;;
24813;SDS011;12904;50.088;11.414;2023-08-17T05:00:02;2.50;;;2.25;;
24813;SDS011;12904;50.088;11.414;2023-08-17T05:02:28;2.88;;;2.63;;
24813;SDS011;12904;50.088;11.414;2023-08-17T05:04:54;2.78;;;2.40;;
24813;SDS011;12904;50.088;11.414;2023-08-17T05:07:20;5.10;;;2.55;;
24813;SDS011;12904;50.088;11.414;2023-08-17T05:09:45;5.03;;;2.47;;
24813;SDS011;12904;50.088;11.414;2023-08-17T05:12:11;2.70;;;2.50;;
24813;SDS011;12904;50.088;11.414;2023-08-17T05:14:36;3.28;;;2.20;;
24813;SDS011;12904;50.088;11.414;2023-08-17T05:17:02;2.83;;;2.35;;
24813;SDS011;12904;50.088;11.414;2023-08-17T05:19:28;2.53;;;2.33;;
24813;SDS011;12904;50.088;11.414;2023-08-17T05:21:53;2.67;;;2.47;;
24813;SDS011;12904;50.088;11.414;2023-08-17T05:24:19;2.40;;;2.03;;
24813;SDS011;12904;50.088;11.414;2023-08-17T05:26:45;3.72;;;2.05;;
24813;SDS011;12904;50.088;11.414;2023-08-17T05:29:11;3.35;;;2.20;;
24813;SDS011;12904;50.088;11.414;2023-08-17T05:31:37;3.08;;;2.78;;
24813;SDS011;12904;50.088;11.414;2023-08-17T05:34:02;2.88;;;2.65;;
24813;SDS011;12904;50.088;11.414;2023-08-17T05:36:28;4.75;;;2.50;;
24813;SDS011;12904;50.088;11.414;2023-08-17T05:38:54;3.45;;;3.05;;
24813;SDS011;12904;50.088;11.414;2023-08-17T05:41:19;4.45;;;3.38;;
24813;SDS011;12904;50.088;11.414;2023-08-17T05:43:45;3.10;;;2.88;;
24813;SDS011;12904;50.088;11.414;2023-08-17T05:46:11;6.35;;;3.30;;
24813;SDS011;12904;50.088;11.414;2023-08-17T05:48:36;4.25;;;2.70;;
24813;SDS011;12904;50.088;11.414;2023-08-17T05:51:02;3.03;;;2.72;;
24813;SDS011;12904;50.088;11.414;2023-08-17T05:53:28;3.08;;;2.60;;
24813;SDS011;12904;50.088;11.414;2023-08-17T05:55:53;3.30;;;2.50;;
24813;SDS011;12904;50.088;11.414;2023-08-17T05:58:19;4.47;;;3.25;;
24813;SDS011;12904;50.088;11.414;2023-08-17T06:00:45;2.78;;;2.58;;
24813;SDS011;12904;50.088;11.414;2023-08-17T06:03:10;5.00;;;3.10;;
24813;SDS011;12904;50.088;11.414;2023-08-17T06:05:36;2.75;;;2.55;;
24813;SDS011;12904;50.088;11.414;2023-08-17T06:08:02;2.90;;;2.70;;
24813;SDS011;12904;50.088;11.414;2023-08-17T06:10:28;3.22;;;3.03;;
24813;SDS011;12904;50.088;11.414;2023-08-17T06:12:54;5.88;;;3.92;;
24813;SDS011;12904;50.088;11.414;2023-08-17T06:15:20;5.43;;;4.93;;
24813;SDS011;12904;50.088;11.414;2023-08-17T06:17:47;6.50;;;6.07;;
24813;SDS011;12904;50.088;11.414;2023-08-17T06:20:15;7.75;;;6.18;;
24813;SDS011;12904;50.088;11.414;2023-08-17T06:22:41;16.73;;;8.95;;
24813;SDS011;12904;50.088;11.414;2023-08-17T06:25:07;9.23;;;8.43;;
24813;SDS011;12904;50.088;11.414;2023-08-17T06:27:34;9.48;;;8.32;;
24813;SDS011;12904;50.088;11.414;2023-08-17T06:30:00;9.30;;;8.60;;
24813;SDS011;12904;50.088;11.414;2023-08-17T06:32:27;9.10;;;8.20;;
24813;SDS011;12904;50.088;11.414;2023-08-17T06:34:53;8.90;;;8.07;;
24813;SDS011;12904;50.088;11.414;2023-08-17T06:37:19;12.55;;;10.10;;
24813;SDS011;12904;50.088;11.414;2023-08-17T06:39:45;10.27;;;9.38;;
24813;SDS011;12904;50.088;11.414;2023-08-17T06:42:10;9.73;;;8.98;;
24813;SDS011;12904;50.088;11.414;2023-08-17T06:44:37;9.73;;;8.80;;
24813;SDS011;12904;50.088;11.414;2023-08-17T06:47:03;10.30;;;9.30;;
24813;SDS011;12904;50.088;11.414;2023-08-17T06:49:28;16.63;;;10.10;;
24813;SDS011;12904;50.088;11.414;2023-08-17T06:51:55;11.38;;;10.38;;
24813;SDS011;12904;50.088;11.414;2023-08-17T06:54:20;12.45;;;11.25;;
24813;SDS011;12904;50.088;11.414;2023-08-17T06:56:46;11.82;;;10.63;;
24813;SDS011;12904;50.088;11.414;2023-08-17T06:59:12;14.45;;;11.10;;
24813;SDS011;12904;50.088;11.414;2023-08-17T07:01:37;11.40;;;10.27;;
24813;SDS011;12904;50.088;11.414;2023-08-17T07:04:03;13.60;;;11.50;;
24813;SDS011;12904;50.088;11.414;2023-08-17T07:06:29;11.32;;;10.43;;
24813;SDS011;12904;50.088;11.414;2023-08-17T07:08:55;11.80;;;10.60;;
24813;SDS011;12904;50.088;11.414;2023-08-17T07:11:21;14.50;;;11.63;;
24813;SDS011;12904;50.088;11.414;2023-08-17T07:13:47;13.30;;;12.20;;
24813;SDS011;12904;50.088;11.414;2023-08-17T07:16:13;12.18;;;11.18;;
24813;SDS011;12904;50.088;11.414;2023-08-17T07:18:39;10.90;;;9.88;;
24813;SDS011;12904;50.088;11.414;2023-08-17T07:21:04;11.65;;;10.63;;
24813;SDS011;12904;50.088;11.414;2023-08-17T07:23:30;16.75;;;11.77;;
24813;SDS011;12904;50.088;11.414;2023-08-17T07:25:56;13.13;;;12.02;;
24813;SDS011;12904;50.088;11.414;2023-08-17T07:28:22;12.85;;;11.55;;
24813;SDS011;12904;50.088;11.414;2023-08-17T07:30:47;12.88;;;11.88;;
24813;SDS011;12904;50.088;11.414;2023-08-17T07:33:13;13.82;;;12.57;;
24813;SDS011;12904;50.088;11.414;2023-08-17T07:35:38;13.57;;;12.45;;
24813;SDS011;12904;50.088;11.414;2023-08-17T07:38:04;13.00;;;11.80;;
24813;SDS011;12904;50.088;11.414;2023-08-17T07:40:30;14.15;;;12.88;;
24813;SDS011;12904;50.088;11.414;2023-08-17T07:42:56;13.25;;;12.15;;
24813;SDS011;12904;50.088;11.414;2023-08-17T07:45:21;30.17;;;19.17;;
24813;SDS011;12904;50.088;11.414;2023-08-17T07:47:47;13.52;;;12.43;;
24813;SDS011;12904;50.088;11.414;2023-08-17T07:50:12;26.27;;;16.83;;
24813;SDS011;12904;50.088;11.414;2023-08-17T07:52:39;13.20;;;12.00;;
24813;SDS011;12904;50.088;11.414;2023-08-17T07:55:04;12.68;;;11.77;;
24813;SDS011;12904;50.088;11.414;2023-08-17T07:57:30;12.98;;;11.88;;
24813;SDS011;12904;50.088;11.414;2023-08-17T07:59:56;15.70;;;12.88;;
24813;SDS011;12904;50.088;11.414;2023-08-17T08:02:21;13.25;;;12.35;;
24813;SDS011;12904;50.088;11.414;2023-08-17T08:04:47;14.05;;;12.90;;
24813;SDS011;12904;50.088;11.414;2023-08-17T08:07:12;12.93;;;11.85;;
24813;SDS011;12904;50.088;11.414;2023-08-17T08:09:38;15.05;;;13.63;;
24813;SDS011;12904;50.088;11.414;2023-08-17T08:12:04;13.60;;;12.60;;
24813;SDS011;12904;50.088;11.414;2023-08-17T08:14:30;14.10;;;12.80;;
24813;SDS011;12904;50.088;11.414;2023-08-17T08:16:55;18.88;;;16.80;;
24813;SDS011;12904;50.088;11.414;2023-08-17T08:19:21;13.15;;;12.00;;
24813;SDS011;12904;50.088;11.414;2023-08-17T08:21:47;13.77;;;11.75;;
24813;SDS011;12904;50.088;11.414;2023-08-17T08:24:12;13.20;;;11.85;;
24813;SDS011;12904;50.088;11.414;2023-08-17T08:26:38;13.45;;;12.25;;
24813;SDS011;12904;50.088;11.414;2023-08-17T08:29:04;12.85;;;11.52;;
24813;SDS011;12904;50.088;11.414;2023-08-17T08:31:29;13.65;;;12.45;;
24813;SDS011;12904;50.088;11.414;2023-08-17T08:33:55;11.93;;;11.02;;
24813;SDS011;12904;50.088;11.414;2023-08-17T08:36:20;13.48;;;12.30;;
24813;SDS011;12904;50.088;11.414;2023-08-17T08:38:46;13.02;;;11.73;;
24813;SDS011;12904;50.088;11.414;2023-08-17T08:41:12;11.48;;;10.32;;
24813;SDS011;12904;50.088;11.414;2023-08-17T08:43:40;14.27;;;11.10;;
24813;SDS011;12904;50.088;11.414;2023-08-17T08:46:06;11.32;;;10.48;;
24813;SDS011;12904;50.088;11.414;2023-08-17T08:48:32;11.75;;;10.60;;
24813;SDS011;12904;50.088;11.414;2023-08-17T08:50:59;10.70;;;9.82;;
24813;SDS011;12904;50.088;11.414;2023-08-17T08:53:32;11.93;;;10.10;;
24813;SDS011;12904;50.088;11.414;2023-08-17T08:56:02;9.73;;;8.82;;
24813;SDS011;12904;50.088;11.414;2023-08-17T08:58:29;11.27;;;9.40;;
24813;SDS011;12904;50.088;11.414;2023-08-17T09:00:56;9.98;;;9.10;;
24813;SDS011;12904;50.088;11.414;2023-08-17T09:03:23;9.40;;;8.80;;
24813;SDS011;12904;50.088;11.414;2023-08-17T09:05:50;9.90;;;9.20;;
24813;SDS011;12904;50.088;11.414;2023-08-17T09:08:20;9.43;;;8.65;;
24813;SDS011;12904;50.088;11.414;2023-08-17T09:10:47;9.82;;;9.02;;
24813;SDS011;12904;50.088;11.414;2023-08-17T09:13:13;8.82;;;8.13;;
24813;SDS011;12904;50.088;11.414;2023-08-17T09:15:39;10.32;;;9.43;;
24813;SDS011;12904;50.088;11.414;2023-08-17T09:18:05;9.50;;;8.60;;
24813;SDS011;12904;50.088;11.414;2023-08-17T09:20:35;9.63;;;8.82;;
24813;SDS011;12904;50.088;11.414;2023-08-17T09:23:03;8.75;;;8.13;;
24813;SDS011;12904;50.088;11.414;2023-08-17T09:25:30;9.10;;;8.27;;
24813;SDS011;12904;50.088;11.414;2023-08-17T09:27:57;9.07;;;8.43;;
24813;SDS011;12904;50.088;11.414;2023-08-17T09:30:22;8.70;;;8.05;;
24813;SDS011;12904;50.088;11.414;2023-08-17T09:32:48;9.27;;;7.80;;
24813;SDS011;12904;50.088;11.414;2023-08-17T09:35:14;9.07;;;8.20;;
24813;SDS011;12904;50.088;11.414;2023-08-17T09:37:40;9.18;;;8.40;;
24813;SDS011;12904;50.088;11.414;2023-08-17T09:40:06;10.00;;;9.00;;
24813;SDS011;12904;50.088;11.414;2023-08-17T09:42:36;8.63;;;7.82;;
24813;SDS011;12904;50.088;11.414;2023-08-17T09:45:03;9.98;;;9.18;;
24813;SDS011;12904;50.088;11.414;2023-08-17T09:47:29;9.38;;;8.45;;
24813;SDS011;12904;50.088;11.414;2023-08-17T09:49:55;10.80;;;7.40;;
24813;SDS011;12904;50.088;11.414;2023-08-17T09:52:21;15.05;;;8.10;;
24813;SDS011;12904;50.088;11.414;2023-08-17T09:54:47;9.27;;;8.05;;
24813;SDS011;12904;50.088;11.414;2023-08-17T09:57:13;8.10;;;7.50;;
24813;SDS011;12904;50.088;11.414;2023-08-17T09:59:39;8.13;;;7.38;;
24813;SDS011;12904;50.088;11.414;2023-08-17T10:02:24;8.63;;;7.88;;
24813;SDS011;12904;50.088;11.414;2023-08-17T10:04:51;9.32;;;7.43;;
24813;SDS011;12904;50.088;11.414;2023-08-17T10:07:21;8.55;;;7.10;;
24813;SDS011;12904;50.088;11.414;2023-08-17T10:09:56;7.30;;;6.75;;
24813;SDS011;12904;50.088;11.414;2023-08-17T10:12:28;10.40;;;7.15;;
24813;SDS011;12904;50.088;11.414;2023-08-17T10:14:59;7.78;;;7.20;;
24813;SDS011;12904;50.088;11.414;2023-08-17T10:17:35;7.85;;;7.07;;
24813;SDS011;12904;50.088;11.414;2023-08-17T10:20:08;8.02;;;7.53;;
24813;SDS011;12904;50.088;11.414;2023-08-17T10:25:09;7.60;;;6.85;;
24813;SDS011;12904;50.088;11.414;2023-08-17T10:27:38;7.68;;;7.07;;
24813;SDS011;12904;50.088;11.414;2023-08-17T10:30:06;7.53;;;6.93;;
24813;SDS011;12904;50.088;11.414;2023-08-17T10:32:35;6.85;;;6.35;;
24813;SDS011;12904;50.088;11.414;2023-08-17T10:35:01;6.97;;;6.47;;
24813;SDS011;12904;50.088;11.414;2023-08-17T10:37:27;8.40;;;7.63;;
24813;SDS011;12904;50.088;11.414;2023-08-17T10:39:54;9.20;;;6.82;;
24813;SDS011;12904;50.088;11.414;2023-08-17T10:42:32;10.02;;;7.35;;
24813;SDS011;12904;50.088;11.414;2023-08-17T10:45:24;7.35;;;6.80;;
24813;SDS011;12904;50.088;11.414;2023-08-17T10:47:59;7.70;;;7.10;;
24813;SDS011;12904;50.088;11.414;2023-08-17T10:50:25;7.40;;;6.90;;
24813;SDS011;12904;50.088;11.414;2023-08-17T10:52:53;7.40;;;6.60;;
24813;SDS011;12904;50.088;11.414;2023-08-17T10:55:34;7.75;;;7.15;;
24813;SDS011;12904;50.088;11.414;2023-08-17T10:58:01;8.23;;;7.25;;
24813;SDS011;12904;50.088;11.414;2023-08-17T11:00:27;8.90;;;8.02;;
24813;SDS011;12904;50.088;11.414;2023-08-17T11:02:59;7.82;;;7.18;;
24813;SDS011;12904;50.088;11.414;2023-08-17T11:08:50;7.13;;;6.63;;
24813;SDS011;12904;50.088;11.414;2023-08-17T11:13:45;7.80;;;7.15;;
24813;SDS011;12904;50.088;11.414;2023-08-17T11:16:12;7.75;;;7.18;;
24813;SDS011;12904;50.088;11.414;2023-08-17T11:18:39;8.55;;;6.97;;
24813;SDS011;12904;50.088;11.414;2023-08-17T11:21:06;6.80;;;6.30;;
24813;SDS011;12904;50.088;11.414;2023-08-17T11:23:34;7.35;;;6.60;;
24813;SDS011;12904;50.088;11.414;2023-08-17T11:26:01;7.55;;;6.82;;
24813;SDS011;12904;50.088;11.414;2023-08-17T11:28:29;7.45;;;6.80;;
24813;SDS011;12904;50.088;11.414;2023-08-17T11:31:07;7.00;;;6.40;;
24813;SDS011;12904;50.088;11.414;2023-08-17T11:33:34;6.60;;;6.10;;
24813;SDS011;12904;50.088;11.414;2023-08-17T11:36:02;6.72;;;6.22;;
24813;SDS011;12904;50.088;11.414;2023-08-17T11:38:33;6.88;;;6.20;;
24813;SDS011;12904;50.088;11.414;2023-08-17T11:41:01;6.80;;;6.25;;
24813;SDS011;12904;50.088;11.414;2023-08-17T11:43:33;7.93;;;6.15;;
24813;SDS011;12904;50.088;11.414;2023-08-17T11:45:59;7.50;;;6.97;;
24813;SDS011;12904;50.088;11.414;2023-08-17T11:48:25;6.85;;;6.28;;
24813;SDS011;12904;50.088;11.414;2023-08-17T11:50:52;7.85;;;6.90;;
24813;SDS011;12904;50.088;11.414;2023-08-17T11:53:18;9.75;;;6.85;;
24813;SDS011;12904;50.088;11.414;2023-08-17T11:55:43;8.38;;;6.65;;
24813;SDS011;12904;50.088;11.414;2023-08-17T11:58:09;6.32;;;5.93;;
24813;SDS011;12904;50.088;11.414;2023-08-17T12:00:35;7.57;;;6.85;;
24813;SDS011;12904;50.088;11.414;2023-08-17T12:03:04;7.07;;;5.93;;
24813;SDS011;12904;50.088;11.414;2023-08-17T12:05:30;8.15;;;6.55;;
24813;SDS011;12904;50.088;11.414;2023-08-17T12:07:57;7.35;;;6.85;;
24813;SDS011;12904;50.088;11.414;2023-08-17T12:10:27;6.70;;;6.20;;
24813;SDS011;12904;50.088;11.414;2023-08-17T12:12:53;7.03;;;6.40;;
24813;SDS011;12904;50.088;11.414;2023-08-17T12:15:22;7.43;;;6.68;;
24813;SDS011;12904;50.088;11.414;2023-08-17T12:17:48;7.38;;;6.88;;
24813;SDS011;12904;50.088;11.414;2023-08-17T12:20:17;7.53;;;6.88;;
24813;SDS011;12904;50.088;11.414;2023-08-17T12:22:45;7.75;;;7.15;;
24813;SDS011;12904;50.088;11.414;2023-08-17T12:25:11;7.32;;;6.75;;
24813;SDS011;12904;50.088;11.414;2023-08-17T12:27:36;6.97;;;6.47;;
24813;SDS011;12904;50.088;11.414;2023-08-17T12:30:02;7.97;;;6.68;;
24813;SDS011;12904;50.088;11.414;2023-08-17T12:32:28;7.72;;;6.68;;
24813;SDS011;12904;50.088;11.414;2023-08-17T12:34:54;6.88;;;6.28;;
24813;SDS011;12904;50.088;11.414;2023-08-17T12:37:20;6.85;;;6.20;;
24813;SDS011;12904;50.088;11.414;2023-08-17T12:39:46;7.05;;;6.55;;
24813;SDS011;12904;50.088;11.414;2023-08-17T12:42:13;7.07;;;6.53;;
24813;SDS011;12904;50.088;11.414;2023-08-17T12:44:39;11.23;;;6.53;;
24813;SDS011;12904;50.088;11.414;2023-08-17T12:47:05;6.95;;;6.45;;
24813;SDS011;12904;50.088;11.414;2023-08-17T12:49:31;6.50;;;6.10;;
24813;SDS011;12904;50.088;11.414;2023-08-17T12:51:57;6.78;;;6.25;;
24813;SDS011;12904;50.088;11.414;2023-08-17T12:54:22;7.85;;;7.25;;
24813;SDS011;12904;50.088;11.414;2023-08-17T12:56:48;6.47;;;5.68;;
24813;SDS011;12904;50.088;11.414;2023-08-17T12:59:13;7.85;;;7.35;;
24813;SDS011;12904;50.088;11.414;2023-08-17T13:01:39;7.07;;;6.35;;
24813;SDS011;12904;50.088;11.414;2023-08-17T13:04:05;6.43;;;5.82;;
24813;SDS011;12904;50.088;11.414;2023-08-17T13:06:31;6.70;;;6.10;;
24813;SDS011;12904;50.088;11.414;2023-08-17T13:08:57;6.95;;;6.35;;
24813;SDS011;12904;50.088;11.414;2023-08-17T13:11:22;6.38;;;5.97;;
24813;SDS011;12904;50.088;11.414;2023-08-17T13:13:48;7.32;;;6.53;;
24813;SDS011;12904;50.088;11.414;2023-08-17T13:16:13;6.07;;;5.57;;
24813;SDS011;12904;50.088;11.414;2023-08-17T13:18:39;7.07;;;6.47;;
24813;SDS011;12904;50.088;11.414;2023-08-17T13:21:05;7.43;;;6.93;;
24813;SDS011;12904;50.088;11.414;2023-08-17T13:23:30;6.32;;;5.82;;
24813;SDS011;12904;50.088;11.414;2023-08-17T13:25:56;8.32;;;6.38;;
24813;SDS011;12904;50.088;11.414;2023-08-17T13:28:22;7.15;;;6.60;;
24813;SDS011;12904;50.088;11.414;2023-08-17T13:30:47;6.45;;;5.93;;
24813;SDS011;12904;50.088;11.414;2023-08-17T13:33:13;7.22;;;6.70;;
24813;SDS011;12904;50.088;11.414;2023-08-17T13:35:41;6.70;;;6.10;;
24813;SDS011;12904;50.088;11.414;2023-08-17T13:38:07;12.52;;;6.28;;
24813;SDS011;12904;50.088;11.414;2023-08-17T13:40:32;6.70;;;6.10;;
24813;SDS011;12904;50.088;11.414;2023-08-17T13:42:58;6.70;;;6.00;;
24813;SDS011;12904;50.088;11.414;2023-08-17T13:45:25;8.52;;;5.95;;
24813;SDS011;12904;50.088;11.414;2023-08-17T13:47:51;6.20;;;5.70;;
24813;SDS011;12904;50.088;11.414;2023-08-17T13:50:17;7.30;;;6.72;;
24813;SDS011;12904;50.088;11.414;2023-08-17T13:52:43;6.15;;;5.75;;
24813;SDS011;12904;50.088;11.414;2023-08-17T13:55:09;6.43;;;5.80;;
24813;SDS011;12904;50.088;11.414;2023-08-17T13:57:35;6.75;;;6.05;;
24813;SDS011;12904;50.088;11.414;2023-08-17T14:00:00;6.93;;;6.47;;
24813;SDS011;12904;50.088;11.414;2023-08-17T14:02:27;7.32;;;6.70;;
24813;SDS011;12904;50.088;11.414;2023-08-17T14:04:52;7.35;;;6.70;;
24813;SDS011;12904;50.088;11.414;2023-08-17T14:07:18;6.95;;;6.35;;
24813;SDS011;12904;50.088;11.414;2023-08-17T14:09:43;7.03;;;6.40;;
24813;SDS011;12904;50.088;11.414;2023-08-17T14:12:09;6.72;;;6.10;;
24813;SDS011;12904;50.088;11.414;2023-08-17T14:14:34;6.35;;;5.85;;
24813;SDS011;12904;50.088;11.414;2023-08-17T14:17:00;7.25;;;6.65;;
24813;SDS011;12904;50.088;11.414;2023-08-17T14:19:27;6.47;;;6.07;;
24813;SDS011;12904;50.088;11.414;2023-08-17T14:21:53;7.88;;;6.00;;
24813;SDS011;12904;50.088;11.414;2023-08-17T14:24:19;6.47;;;5.97;;
24813;SDS011;12904;50.088;11.414;2023-08-17T14:26:44;6.30;;;5.70;;
24813;SDS011;12904;50.088;11.414;2023-08-17T14:29:10;7.13;;;6.63;;
24813;SDS011;12904;50.088;11.414;2023-08-17T14:31:35;8.57;;;6.28;;
24813;SDS011;12904;50.088;11.414;2023-08-17T14:34:01;7.35;;;6.15;;
24813;SDS011;12904;50.088;11.414;2023-08-17T14:36:27;5.85;;;5.35;;
24813;SDS011;12904;50.088;11.414;2023-08-17T14:38:52;8.55;;;5.90;;